createdAt,value
2023-05-11T00:01:47.597Z,100837.03
2023-05-11T00:04:14.904Z,100842.38
2023-05-11T00:06:41.730Z,100845.97
2023-05-11T00:09:09.423Z,100844.19
2023-05-11T00:11:36.349Z,100846.91
2023-05-11T00:14:03.678Z,100840.66
2023-05-11T00:16:30.647Z,100841.56
2023-05-11T00:18:57.513Z,100838.91
2023-05-11T00:21:24.367Z,100837.13
2023-05-11T00:23:51.257Z,100839.81
2023-05-11T00:26:18.016Z,100847.84
2023-05-11T00:28:45.378Z,100839.81
2023-05-11T00:31:12.214Z,100845.13
2023-05-11T00:33:39.067Z,100844.25
2023-05-11T00:36:06.371Z,100836.31
2023-05-11T00:38:33.156Z,100844.34
2023-05-11T00:40:59.938Z,100840.91
2023-05-11T00:43:26.696Z,100839.19
2023-05-11T00:45:53.612Z,100840.09
2023-05-11T00:48:20.454Z,100842.81
2023-05-11T00:50:47.732Z,100839.31
2023-05-11T00:53:14.630Z,100841.13
2023-05-11T00:55:41.958Z,100839.31
2023-05-11T00:58:08.749Z,100841.91
2023-05-11T01:00:36.631Z,100847.44
2023-05-11T01:03:03.801Z,100845.69
2023-05-11T01:05:48.607Z,100841.25
2023-05-11T01:08:25.006Z,100848.47
2023-05-11T01:11:07.217Z,100850.28
2023-05-11T01:13:48.903Z,100848.53
2023-05-11T01:16:21.621Z,100851.25
2023-05-11T01:19:19.484Z,100852.19
2023-05-11T01:21:50.747Z,100840.69
2023-05-11T01:24:47.710Z,100843.47
2023-05-11T01:27:56.518Z,100848.88
2023-05-11T01:30:31.387Z,100850.69
2023-05-11T01:33:08.557Z,100847.19
2023-05-11T01:35:41.348Z,100847.19
2023-05-11T01:38:13.296Z,100848.97
2023-05-11T01:40:42.867Z,100850.69
2023-05-11T01:43:14.494Z,100850.69
2023-05-11T01:45:50.475Z,100848.88
2023-05-11T01:48:28.814Z,100845.34
2023-05-11T01:51:00.516Z,100857.91
2023-05-11T01:53:32.464Z,100856.06
2023-05-11T01:56:01.917Z,100850.66
2023-05-11T01:58:29.898Z,100864.84
2023-05-11T02:01:00.154Z,100855.94
2023-05-11T02:03:29.861Z,100855.94
2023-05-11T02:05:58.324Z,100863.91
2023-05-11T02:08:27.244Z,100855.81
2023-05-11T02:10:55.263Z,100858.47
2023-05-11T02:13:23.139Z,100862.88
2023-05-11T02:15:52.371Z,100865.53
2023-05-11T02:18:20.857Z,100864.66
2023-05-11T02:20:48.422Z,100856.69
2023-05-11T02:23:16.454Z,100866.50
2023-05-11T02:25:43.729Z,100859.47
2023-05-11T02:28:10.597Z,100861.28
2023-05-11T02:30:46.161Z,100863.94
2023-05-11T02:33:19.612Z,100856.88
2023-05-11T02:35:47.735Z,100861.41
2023-05-11T02:38:15.803Z,100865.00
2023-05-11T02:40:49.295Z,100857.91
2023-05-11T02:43:23.162Z,100857.13
2023-05-11T02:45:54.097Z,100866.09
2023-05-11T02:48:31.612Z,100861.59
2023-05-11T02:51:02.415Z,100858.03
2023-05-11T02:53:32.162Z,100860.69
2023-05-11T02:56:00.838Z,100865.16
2023-05-11T02:58:28.798Z,100858.00
2023-05-11T03:00:56.335Z,100861.59
2023-05-11T03:03:23.627Z,100859.88
2023-05-11T03:05:51.128Z,100863.44
2023-05-11T03:08:18.075Z,100859.91
2023-05-11T03:10:45.193Z,100859.09
2023-05-11T03:13:12.472Z,100860.03
2023-05-11T03:15:40.640Z,100866.31
2023-05-11T03:18:08.426Z,100868.16
2023-05-11T03:20:39.142Z,100863.66
2023-05-11T03:23:06.977Z,100869.09
2023-05-11T03:25:34.689Z,100867.22
2023-05-11T03:28:05.365Z,100862.78
2023-05-11T03:30:32.946Z,100867.19
2023-05-11T03:32:59.950Z,100862.69
2023-05-11T03:35:29.393Z,100856.50
2023-05-11T03:37:57.514Z,100861.84
2023-05-11T03:40:25.138Z,100867.19
2023-05-11T03:42:55.412Z,100865.34
2023-05-11T03:45:23.038Z,100863.56
2023-05-11T03:47:51.386Z,100858.22
2023-05-11T03:50:19.689Z,100859.13
2023-05-11T03:52:49.950Z,100867.13
2023-05-11T03:55:16.765Z,100865.28
2023-05-11T03:57:43.799Z,100861.69
2023-05-11T04:00:11.638Z,100859.03
2023-05-11T04:02:38.621Z,100861.75
2023-05-11T04:05:10.189Z,100858.22
2023-05-11T04:07:38.615Z,100851.97
2023-05-11T04:10:06.815Z,100856.41
2023-05-11T04:12:33.719Z,100859.09
2023-05-11T04:15:00.502Z,100856.50
2023-05-11T04:17:27.287Z,100859.19
2023-05-11T04:19:54.054Z,100864.56
2023-05-11T04:22:20.893Z,100859.22
2023-05-11T04:24:47.647Z,100867.22
2023-05-11T04:27:16.343Z,100866.41
2023-05-11T04:29:43.159Z,100863.72
2023-05-11T04:32:09.952Z,100865.53
2023-05-11T04:34:36.923Z,100864.63
2023-05-11T04:37:07.193Z,100867.31
2023-05-11T04:39:34.866Z,100866.44
2023-05-11T04:42:01.962Z,100867.31
2023-05-11T04:44:28.789Z,100867.28
2023-05-11T04:46:57.047Z,100874.44
2023-05-11T04:49:23.966Z,100867.31
2023-05-11T04:51:50.877Z,100878.88
2023-05-11T04:54:17.748Z,100874.44
2023-05-11T04:56:44.594Z,100876.16
2023-05-11T04:59:11.356Z,100877.03
2023-05-11T05:01:39.702Z,100874.28
2023-05-11T05:04:06.747Z,100878.69
2023-05-11T05:06:33.748Z,100882.28
2023-05-11T05:09:00.815Z,100884.06
2023-05-11T05:11:27.659Z,100884.06
2023-05-11T05:13:54.960Z,100878.63
2023-05-11T05:16:21.813Z,100882.16
2023-05-11T05:18:48.713Z,100882.16
2023-05-11T05:21:15.652Z,100891.97
2023-05-11T05:23:42.414Z,100888.31
2023-05-11T05:26:09.211Z,100887.34
2023-05-11T05:28:35.978Z,100890.91
2023-05-11T05:31:02.855Z,100884.66
2023-05-11T05:33:29.674Z,100894.47
2023-05-11T05:35:56.467Z,100890.06
2023-05-11T05:38:23.269Z,100898.94
2023-05-11T05:40:50.176Z,100898.91
2023-05-11T05:43:17.147Z,100895.34
2023-05-11T05:45:43.906Z,100895.25
2023-05-11T05:48:10.737Z,100897.03
2023-05-11T05:50:37.685Z,100900.50
2023-05-11T05:53:04.518Z,100906.66
2023-05-11T05:55:31.419Z,100907.53
2023-05-11T05:57:58.185Z,100909.28
2023-05-11T06:00:25.034Z,100909.28
2023-05-11T06:02:51.845Z,100916.38
2023-05-11T06:05:18.649Z,100918.13
2023-05-11T06:07:51.433Z,100919.84
2023-05-11T06:10:25.834Z,100921.50
2023-05-11T06:12:52.618Z,100917.88
2023-05-11T06:15:19.419Z,100919.63
2023-05-11T06:17:46.233Z,100921.38
2023-05-11T06:20:13.850Z,100924.06
2023-05-11T06:22:40.714Z,100923.97
2023-05-11T06:25:07.926Z,100918.63
2023-05-11T06:27:34.718Z,100920.31
2023-05-11T06:30:01.580Z,100922.97
2023-05-11T06:32:28.346Z,100917.53
2023-05-11T06:34:55.212Z,100915.69
2023-05-11T06:37:22.075Z,100915.69
2023-05-11T06:39:48.858Z,100916.56
2023-05-11T06:42:15.835Z,100912.16
2023-05-11T06:44:43.861Z,100919.34
2023-05-11T06:47:11.201Z,100917.59
2023-05-11T06:49:44.934Z,100910.47
2023-05-11T06:52:11.964Z,100925.66
2023-05-11T06:54:38.774Z,100923.00
2023-05-11T06:57:08.338Z,100910.56
2023-05-11T06:59:35.199Z,100908.78
2023-05-11T07:02:02.067Z,100919.50
2023-05-11T07:04:29.741Z,100918.63
2023-05-11T07:06:56.653Z,100915.97
2023-05-11T07:09:23.493Z,100927.53
2023-05-11T07:11:52.037Z,100924.84
2023-05-11T07:14:19.050Z,100919.50
2023-05-11T07:16:46.434Z,100924.84
2023-05-11T07:19:13.663Z,100917.81
2023-05-11T07:21:40.515Z,100925.06
2023-05-11T07:24:07.418Z,100918.91
2023-05-11T07:26:34.208Z,100923.44
2023-05-11T07:29:00.994Z,100924.28
2023-05-11T07:31:29.938Z,100925.22
2023-05-11T07:33:57.039Z,100925.19
2023-05-11T07:36:23.864Z,100930.59
2023-05-11T07:38:50.703Z,100928.03
2023-05-11T07:41:19.097Z,100937.94
2023-05-11T07:43:45.886Z,100933.69
2023-05-11T07:46:12.693Z,100930.19
2023-05-11T07:48:39.518Z,100928.50
2023-05-11T07:51:07.463Z,100936.56
2023-05-11T07:53:35.107Z,100932.16
2023-05-11T07:56:03.748Z,100943.78
2023-05-11T07:58:30.901Z,100939.41
2023-05-11T08:00:57.752Z,100940.28
2023-05-11T08:03:24.610Z,100941.19
2023-05-11T08:05:51.475Z,100942.09
2023-05-11T08:08:18.353Z,100944.81
2023-05-11T08:10:45.159Z,100950.19
2023-05-11T08:13:11.947Z,100945.75
2023-05-11T08:15:39.008Z,100937.75
2023-05-11T08:18:06.703Z,100947.50
2023-05-11T08:20:41.054Z,100946.59
2023-05-11T08:23:17.019Z,100945.66
2023-05-11T08:25:55.480Z,100946.56
2023-05-11T08:28:22.867Z,100953.66
2023-05-11T08:30:57.656Z,100955.41
2023-05-11T08:33:37.729Z,100954.56
2023-05-11T08:36:07.038Z,100942.97
2023-05-11T08:38:37.519Z,100948.34
2023-05-11T08:41:04.889Z,100951.00
2023-05-11T08:43:34.874Z,100947.50
2023-05-11T08:46:07.445Z,100947.50
2023-05-11T08:48:34.724Z,100946.66
2023-05-11T08:51:04.626Z,100951.09
2023-05-11T08:53:31.843Z,100956.44
2023-05-11T08:56:01.028Z,100952.00
2023-05-11T08:58:31.156Z,100944.91
2023-05-11T09:00:59.153Z,100956.50
2023-05-11T09:03:29.692Z,100944.03
2023-05-11T09:05:57.456Z,100944.94
2023-05-11T09:08:27.235Z,100943.97
2023-05-11T09:10:54.534Z,100947.50
2023-05-11T09:13:21.364Z,100951.00
2023-05-11T09:15:48.176Z,100954.47
2023-05-11T09:18:14.942Z,100952.66
2023-05-11T09:20:43.977Z,100937.47
2023-05-11T09:23:10.889Z,100945.47
2023-05-11T09:25:39.637Z,100947.25
2023-05-11T09:28:06.410Z,100943.66
2023-05-11T09:30:34.291Z,100943.59
2023-05-11T09:33:02.680Z,100941.78
2023-05-11T09:35:35.059Z,100940.00
2023-05-11T09:38:11.710Z,100944.47
2023-05-11T09:40:44.080Z,100945.44
2023-05-11T09:43:28.485Z,100942.78
2023-05-11T09:45:58.636Z,100943.66
2023-05-11T09:48:32.726Z,100947.19
2023-05-11T09:51:05.784Z,100947.13
2023-05-11T09:53:44.513Z,100945.28
2023-05-11T09:56:12.749Z,100947.06
2023-05-11T09:58:49.644Z,100945.25
2023-05-11T10:01:19.267Z,100947.06
2023-05-11T10:04:02.575Z,100951.50
2023-05-11T10:06:53.234Z,100948.91
2023-05-11T10:09:25.479Z,100941.78
2023-05-11T10:11:55.470Z,100940.88
2023-05-11T10:14:23.992Z,100936.44
2023-05-11T10:16:52.217Z,100935.56
2023-05-11T10:19:19.620Z,100929.31
2023-05-11T10:21:46.663Z,100940.00
2023-05-11T10:24:14.393Z,100936.47
2023-05-11T10:26:41.324Z,100936.47
2023-05-11T10:29:09.533Z,100933.81
2023-05-11T10:31:37.719Z,100932.91
2023-05-11T10:34:04.953Z,100931.91
2023-05-11T10:36:35.064Z,100923.00
2023-05-11T10:39:01.838Z,100927.41
2023-05-11T10:41:52.812Z,100927.31
2023-05-11T10:44:28.345Z,100920.19
2023-05-11T10:47:25.396Z,100921.97
2023-05-11T10:50:37.773Z,100913.16
2023-05-11T10:53:27.956Z,100923.78
2023-05-11T10:56:44.304Z,100921.97
2023-05-11T10:59:45.382Z,100919.28
2023-05-11T11:02:12.215Z,100925.47
2023-05-11T11:04:50.835Z,100920.03
2023-05-11T11:07:20.747Z,100925.34
2023-05-11T11:10:00.798Z,100919.88
2023-05-11T11:12:29.629Z,100925.13
2023-05-11T11:15:06.329Z,100925.06
2023-05-11T11:17:35.841Z,100923.28
2023-05-11T11:20:07.536Z,100925.03
2023-05-11T11:22:41.560Z,100924.97
2023-05-11T11:25:10.280Z,100930.31
2023-05-11T11:27:40.139Z,100919.63
2023-05-11T11:30:23.115Z,100929.41
2023-05-11T11:32:55.100Z,100922.28
2023-05-11T11:35:43.146Z,100928.53
2023-05-11T11:38:12.764Z,100933.97
2023-05-11T11:40:57.798Z,100929.50
2023-05-11T11:43:28.723Z,100924.16
2023-05-11T11:46:03.527Z,100924.94
2023-05-11T11:48:36.725Z,100928.44
2023-05-11T11:51:13.111Z,100930.16
2023-05-11T11:53:43.810Z,100929.19
2023-05-11T11:56:16.226Z,100919.28
2023-05-11T11:58:46.118Z,100935.25
2023-05-11T12:01:14.789Z,100928.09
2023-05-11T12:03:44.657Z,100927.16
2023-05-11T12:06:13.297Z,100919.06
2023-05-11T12:08:41.344Z,100916.28
2023-05-11T12:11:08.623Z,100921.53
2023-05-11T12:13:36.065Z,100918.78
2023-05-11T12:16:15.023Z,100916.97
2023-05-11T12:18:51.595Z,100914.31
2023-05-11T12:21:27.791Z,100920.56
2023-05-11T12:23:57.245Z,100917.00
2023-05-11T12:26:27.669Z,100906.31
2023-05-11T12:29:14.594Z,100902.72
2023-05-11T12:31:43.747Z,100909.75
2023-05-11T12:34:23.307Z,100906.09
2023-05-11T12:36:52.647Z,100907.72
2023-05-11T12:39:27.396Z,100903.13
2023-05-11T12:41:56.145Z,100896.75
2023-05-11T12:44:26.033Z,100896.59
2023-05-11T12:46:53.431Z,100895.56
2023-05-11T12:49:26.251Z,100915.09
2023-05-11T12:52:00.040Z,100905.31
2023-05-11T12:54:29.879Z,100907.16
2023-05-11T12:56:56.970Z,100906.22
2023-05-11T12:59:41.960Z,100898.19
2023-05-11T13:02:17.986Z,100901.78
2023-05-11T13:04:46.811Z,100901.88
2023-05-11T13:07:24.119Z,100890.34
2023-05-11T13:10:01.251Z,100899.34
2023-05-11T13:12:32.015Z,100899.38
2023-05-11T13:15:12.724Z,100902.13
2023-05-11T13:17:42.479Z,100902.16
2023-05-11T13:20:32.639Z,100898.59
2023-05-11T13:23:08.061Z,100880.75
2023-05-11T13:25:54.238Z,100880.81
2023-05-11T13:28:24.152Z,100880.81
2023-05-11T13:30:58.227Z,100879.94
2023-05-11T13:33:25.346Z,100882.59
2023-05-11T13:35:52.121Z,100879.91
2023-05-11T13:38:18.902Z,100877.16
2023-05-11T13:40:46.270Z,100880.63
2023-05-11T13:43:13.154Z,100875.28
2023-05-11T13:45:42.679Z,100880.69
2023-05-11T13:48:09.557Z,100884.28
2023-05-11T13:50:36.516Z,100879.03
2023-05-11T13:53:03.309Z,100878.25
2023-05-11T13:55:30.661Z,100882.75
2023-05-11T13:57:57.987Z,100881.00
2023-05-11T14:00:25.185Z,100881.00
2023-05-11T14:02:52.674Z,100877.41
2023-05-11T14:05:19.899Z,100882.75
2023-05-11T14:07:48.960Z,100877.38
2023-05-11T14:10:17.633Z,100871.97
2023-05-11T14:12:45.286Z,100883.53
2023-05-11T14:15:12.449Z,100875.47
2023-05-11T14:17:41.548Z,100873.66
2023-05-11T14:20:09.258Z,100875.41
2023-05-11T14:22:36.392Z,100866.44
2023-05-11T14:25:03.158Z,100871.81
2023-05-11T14:27:29.949Z,100861.97
2023-05-11T14:29:56.763Z,100867.25
2023-05-11T14:32:23.620Z,100862.75
2023-05-11T14:34:50.652Z,100858.19
2023-05-11T14:37:17.424Z,100862.63
2023-05-11T14:39:44.231Z,100862.53
2023-05-11T14:42:11.105Z,100865.16
2023-05-11T14:44:37.923Z,100858.78
2023-05-11T14:47:05.628Z,100859.47
2023-05-11T14:49:32.540Z,100854.09
2023-05-11T14:51:59.727Z,100858.44
2023-05-11T14:54:26.631Z,100854.75
2023-05-11T14:56:55.469Z,100850.22
2023-05-11T14:59:26.874Z,100848.38
2023-05-11T15:01:53.868Z,100845.59
2023-05-11T15:04:20.902Z,100846.47
2023-05-11T15:06:48.101Z,100857.16
2023-05-11T15:09:14.901Z,100848.22
2023-05-11T15:11:41.832Z,100846.34
2023-05-11T15:14:08.644Z,100841.84
2023-05-11T15:16:35.699Z,100846.19
2023-05-11T15:19:02.628Z,100852.31
2023-05-11T15:21:29.477Z,100851.22
2023-05-11T15:23:56.269Z,100853.88
2023-05-11T15:26:24.153Z,100855.56
2023-05-11T15:28:51.004Z,100857.31
2023-05-11T15:31:17.869Z,100855.56
2023-05-11T15:33:44.904Z,100855.56
2023-05-11T15:36:13.871Z,100860.00
2023-05-11T15:38:42.921Z,100855.50
2023-05-11T15:41:09.937Z,100860.75
2023-05-11T15:43:36.873Z,100861.53
2023-05-11T15:46:04.804Z,100864.25
2023-05-11T15:48:31.856Z,100867.88
2023-05-11T15:51:01.976Z,100865.13
2023-05-11T15:53:29.038Z,100873.13
2023-05-11T15:55:56.711Z,100873.88
2023-05-11T15:58:23.671Z,100871.19
2023-05-11T16:00:50.730Z,100865.84
2023-05-11T16:03:17.726Z,100879.25
2023-05-11T16:05:45.427Z,100870.31
2023-05-11T16:08:13.056Z,100872.09
2023-05-11T16:10:40.288Z,100876.47
2023-05-11T16:13:08.250Z,100872.88
2023-05-11T16:15:35.069Z,100878.94
2023-05-11T16:18:05.344Z,100876.13
2023-05-11T16:20:32.564Z,100872.41
2023-05-11T16:22:59.341Z,100874.16
2023-05-11T16:25:26.191Z,100868.66
2023-05-11T16:27:52.927Z,100875.72
2023-05-11T16:30:24.847Z,100883.69
2023-05-11T16:32:52.802Z,100877.28
2023-05-11T16:35:19.952Z,100871.00
2023-05-11T16:37:47.761Z,100878.94
2023-05-11T16:40:14.960Z,100875.34
2023-05-11T16:42:42.476Z,100871.63
2023-05-11T16:45:09.683Z,100869.69
2023-05-11T16:47:36.491Z,100870.47
2023-05-11T16:50:03.679Z,100865.97
2023-05-11T16:52:30.618Z,100870.41
2023-05-11T16:54:59.101Z,100871.22
2023-05-11T16:57:26.634Z,100866.72
2023-05-11T16:59:53.503Z,100871.97
2023-05-11T17:02:21.148Z,100860.25
2023-05-11T17:04:48.758Z,100856.56
2023-05-11T17:07:16.072Z,100872.56
2023-05-11T17:09:43.203Z,100868.88
2023-05-11T17:12:10.748Z,100859.94
2023-05-11T17:14:37.820Z,100858.22
2023-05-11T17:17:06.758Z,100863.63
2023-05-11T17:19:34.492Z,100865.53
2023-05-11T17:22:01.367Z,100865.59
2023-05-11T17:24:28.492Z,100872.84
2023-05-11T17:26:55.498Z,100874.69
2023-05-11T17:29:22.455Z,100870.28
2023-05-11T17:31:51.436Z,100875.69
2023-05-11T17:34:19.391Z,100873.88
2023-05-11T17:36:46.583Z,100879.31
2023-05-11T17:39:13.662Z,100887.44
2023-05-11T17:41:40.481Z,100882.19
2023-05-11T17:44:07.333Z,100885.78
2023-05-11T17:46:34.572Z,100893.84
2023-05-11T17:49:02.030Z,100901.91
2023-05-11T17:51:29.353Z,100898.38
2023-05-11T17:53:56.243Z,100886.78
2023-05-11T17:56:23.359Z,100890.38
2023-05-11T17:58:51.454Z,100892.19
2023-05-11T18:01:18.874Z,100890.41
2023-05-11T18:03:46.702Z,100891.34
2023-05-11T18:06:13.776Z,100894.16
2023-05-11T18:08:40.789Z,100901.41
2023-05-11T18:11:10.025Z,100908.56
2023-05-11T18:13:36.918Z,100900.56
2023-05-11T18:16:04.165Z,100903.25
2023-05-11T18:18:31.885Z,100901.53
2023-05-11T18:20:59.244Z,100904.22
2023-05-11T18:23:26.381Z,100903.38
2023-05-11T18:25:53.415Z,100916.78
2023-05-11T18:28:20.519Z,100913.19
2023-05-11T18:30:47.450Z,100914.09
2023-05-11T18:33:14.204Z,100922.13
2023-05-11T18:35:43.089Z,100927.44
2023-05-11T18:38:09.869Z,100929.19
2023-05-11T18:40:36.687Z,100936.31
2023-05-11T18:43:03.962Z,100937.19
2023-05-11T18:45:32.883Z,100938.09
2023-05-11T18:47:59.785Z,100931.81
2023-05-11T18:50:28.114Z,100934.47
2023-05-11T18:52:55.126Z,100933.59
2023-05-11T18:55:22.116Z,100933.56
2023-05-11T18:57:52.327Z,100935.41
2023-05-11T19:00:20.446Z,100951.50
2023-05-11T19:02:48.160Z,100947.94
2023-05-11T19:05:15.346Z,100944.38
2023-05-11T19:07:42.249Z,100938.13
2023-05-11T19:10:09.355Z,100941.78
2023-05-11T19:12:36.185Z,100941.78
2023-05-11T19:15:04.235Z,100945.38
2023-05-11T19:17:31.119Z,100936.41
2023-05-11T19:19:57.976Z,100925.69
2023-05-11T19:22:24.879Z,100932.81
2023-05-11T19:24:51.664Z,100936.41
2023-05-11T19:27:18.455Z,100939.09
2023-05-11T19:29:45.236Z,100941.78
2023-05-11T19:32:12.073Z,100948.03
2023-05-11T19:34:38.842Z,100950.75
2023-05-11T19:37:06.909Z,100957.03
2023-05-11T19:39:33.673Z,100972.22
2023-05-11T19:42:00.761Z,100958.81
2023-05-11T19:44:32.828Z,100966.88
2023-05-11T19:46:59.694Z,100979.44
2023-05-11T19:49:27.877Z,100979.44
2023-05-11T19:51:54.887Z,100990.19
2023-05-11T19:54:22.170Z,100988.41
2023-05-11T19:56:49.044Z,100993.78
2023-05-11T19:59:15.888Z,101000.97
2023-05-11T20:01:42.746Z,100992.00
2023-05-11T20:04:11.786Z,100997.38
2023-05-11T20:06:38.597Z,101000.06
2023-05-11T20:09:05.639Z,100999.22
2023-05-11T20:11:32.415Z,101003.75
2023-05-11T20:14:00.743Z,100999.31
2023-05-11T20:16:30.244Z,100997.53
2023-05-11T20:18:59.179Z,101011.91
2023-05-11T20:21:26.222Z,101013.72
2023-05-11T20:23:53.037Z,101006.69
2023-05-11T20:26:19.805Z,101003.16
2023-05-11T20:28:46.587Z,101004.16
2023-05-11T20:31:13.406Z,101007.84
2023-05-11T20:36:10.433Z,101007.97
2023-05-11T20:38:37.221Z,101017.84
2023-05-11T20:41:03.994Z,101017.97
2023-05-11T20:43:30.802Z,101014.47
2023-05-11T20:46:06.008Z,101016.25
2023-05-11T20:48:40.509Z,101008.31
2023-05-11T20:51:08.459Z,101011.91
2023-05-11T20:53:35.244Z,101016.38
2023-05-11T20:56:03.205Z,101019.09
2023-05-11T20:58:31.525Z,101016.50
2023-05-11T21:00:58.465Z,101016.53
2023-05-11T21:03:26.705Z,101022.84
2023-05-11T21:05:53.637Z,101023.78
2023-05-11T21:08:20.621Z,101023.78
2023-05-11T21:10:47.969Z,101023.88
2023-05-11T21:13:14.760Z,101021.25
2023-05-11T21:15:41.612Z,101021.34
2023-05-11T21:18:08.512Z,101028.53
2023-05-11T21:20:35.828Z,101031.28
2023-05-11T21:23:02.669Z,101034.91
2023-05-11T21:25:29.794Z,101031.34
2023-05-11T21:27:56.605Z,101037.69
2023-05-11T21:30:23.440Z,101031.50
2023-05-11T21:32:50.652Z,101033.34
2023-05-11T21:35:17.881Z,101034.28
2023-05-11T21:37:49.222Z,101032.56
2023-05-11T21:40:17.417Z,101033.47
2023-05-11T21:42:44.555Z,101037.09
2023-05-11T21:45:11.952Z,101041.56
2023-05-11T21:47:38.893Z,101038.94
2023-05-11T21:50:08.357Z,101034.50
2023-05-11T21:52:36.953Z,101040.78
2023-05-11T21:55:04.711Z,101037.19
2023-05-11T21:57:31.672Z,101036.34
2023-05-11T21:59:58.459Z,101046.19
2023-05-11T22:02:25.647Z,101046.13
2023-05-11T22:04:52.589Z,101049.75
2023-05-11T22:07:19.948Z,101047.91
2023-05-11T22:09:46.774Z,101049.75
2023-05-11T22:12:13.581Z,101042.56
2023-05-11T22:14:41.266Z,101046.13
2023-05-11T22:17:08.172Z,101046.13
2023-05-11T22:19:34.936Z,101045.22
2023-05-11T22:22:02.138Z,101046.13
2023-05-11T22:24:28.916Z,101046.13
2023-05-11T22:26:56.256Z,101049.75
2023-05-11T22:29:23.071Z,101049.75
2023-05-11T22:31:49.930Z,101043.53
2023-05-11T22:34:16.988Z,101049.81
2023-05-11T22:36:47.245Z,101049.81
2023-05-11T22:39:14.076Z,101056.06
2023-05-11T22:41:40.928Z,101050.72
2023-05-11T22:44:09.173Z,101060.59
2023-05-11T22:46:36.001Z,101055.25
2023-05-11T22:49:02.845Z,101060.59
2023-05-11T22:51:29.670Z,101066.88
2023-05-11T22:53:56.468Z,101065.97
2023-05-11T22:56:23.220Z,101066.03
2023-05-11T22:58:51.912Z,101053.56
2023-05-11T23:01:18.895Z,101061.63
2023-05-11T23:03:46.524Z,101060.72
2023-05-11T23:06:13.278Z,101064.31
2023-05-11T23:08:40.089Z,101072.41
2023-05-11T23:11:07.459Z,101073.31
2023-05-11T23:13:34.889Z,101069.75
2023-05-11T23:16:04.527Z,101074.28
2023-05-11T23:18:32.082Z,101068.06
2023-05-11T23:21:00.178Z,101070.75
2023-05-11T23:23:27.244Z,101064.53
2023-05-11T23:25:54.188Z,101073.50
2023-05-11T23:28:20.991Z,101071.75
2023-05-11T23:30:47.862Z,101068.22
2023-05-11T23:33:15.057Z,101073.56
2023-05-11T23:35:41.926Z,101068.28
2023-05-11T23:38:08.739Z,101069.19
2023-05-11T23:40:36.180Z,101075.50
2023-05-11T23:43:03.052Z,101063.03
2023-05-11T23:45:29.959Z,101065.75
2023-05-11T23:47:56.988Z,101064.91
2023-05-11T23:50:23.794Z,101064.91
2023-05-11T23:52:50.644Z,101074.75
2023-05-11T23:55:17.525Z,101075.69
2023-05-11T23:57:44.954Z,101066.78
